createdAt,value
2018-01-10T00:01:09.487Z,0
2018-01-10T00:02:19.540Z,0
2018-01-10T00:03:29.614Z,0
2018-01-10T00:04:39.724Z,0
2018-01-10T00:05:49.528Z,0
2018-01-10T00:06:59.577Z,0
2018-01-10T00:08:09.361Z,0
2018-01-10T00:09:19.398Z,0
2018-01-10T00:10:29.460Z,0
2018-01-10T00:11:39.261Z,0
2018-01-10T00:12:49.332Z,0
2018-01-10T00:13:59.410Z,0
2018-01-10T00:15:09.212Z,0
2018-01-10T00:16:19.001Z,0
2018-01-10T00:17:29.069Z,0
2018-01-10T00:18:38.865Z,0
2018-01-10T00:19:48.958Z,0
2018-01-10T00:20:58.745Z,0
2018-01-10T00:22:08.583Z,0
2018-01-10T00:23:18.626Z,0
2018-01-10T00:24:28.673Z,0
2018-01-10T00:25:38.721Z,0
2018-01-10T00:26:48.765Z,0
2018-01-10T00:27:58.556Z,0
2018-01-10T00:29:08.353Z,0
2018-01-10T00:30:18.183Z,0
2018-01-10T00:31:28.248Z,0
2018-01-10T00:32:38.313Z,0
2018-01-10T00:33:48.427Z,0
2018-01-10T00:34:58.480Z,0
2018-01-10T00:36:08.526Z,0
2018-01-10T00:37:18.348Z,0
2018-01-10T00:38:28.418Z,0
2018-01-10T00:39:38.219Z,0
2018-01-10T00:40:48.276Z,0
2018-01-10T00:41:58.319Z,0
2018-01-10T00:43:08.371Z,0
2018-01-10T00:44:18.434Z,0
2018-01-10T00:45:28.555Z,0
2018-01-10T00:46:38.356Z,0
2018-01-10T00:47:48.403Z,0
2018-01-10T00:48:58.467Z,0
2018-01-10T00:50:08.527Z,0
2018-01-10T00:51:18.645Z,0
2018-01-10T00:52:29.736Z,0
2018-01-10T00:53:39.779Z,0
2018-01-10T00:54:49.561Z,0
2018-01-10T00:55:59.610Z,0
2018-01-10T00:57:09.401Z,0
2018-01-10T00:58:19.453Z,0
2018-01-10T00:59:29.494Z,0
2018-01-10T01:00:39.547Z,0
2018-01-10T01:01:49.603Z,0
2018-01-10T01:02:59.663Z,0
2018-01-10T01:04:09.738Z,0
2018-01-10T01:05:19.790Z,0
2018-01-10T01:06:29.320Z,0
2018-01-10T01:07:38.912Z,0
2018-01-10T01:08:49.005Z,0
2018-01-10T01:09:59.060Z,0
2018-01-10T01:11:08.850Z,0
2018-01-10T01:12:18.900Z,0
2018-01-10T01:13:28.954Z,0
2018-01-10T01:14:39.000Z,0
2018-01-10T01:15:48.788Z,0
2018-01-10T01:16:58.853Z,0
2018-01-10T01:18:08.901Z,0
2018-01-10T01:19:18.864Z,0
2018-01-10T01:20:28.705Z,0
2018-01-10T01:21:38.738Z,0
2018-01-10T01:22:48.523Z,0
2018-01-10T01:23:58.586Z,0
2018-01-10T01:25:08.982Z,0
2018-01-10T01:26:18.766Z,0
2018-01-10T01:27:28.813Z,0
2018-01-10T01:28:38.860Z,0
2018-01-10T01:29:48.918Z,0
2018-01-10T01:30:58.976Z,0
2018-01-10T01:32:09.039Z,0
2018-01-10T01:33:19.126Z,0
2018-01-10T01:34:29.173Z,0
2018-01-10T01:35:38.956Z,0
2018-01-10T01:36:49.025Z,0
2018-01-10T01:37:58.860Z,0
2018-01-10T01:39:08.643Z,0
2018-01-10T01:40:18.703Z,0
2018-01-10T01:41:28.762Z,0
2018-01-10T01:42:38.810Z,0
2018-01-10T01:43:48.382Z,0
2018-01-10T01:44:58.422Z,0
2018-01-10T01:46:08.470Z,0
2018-01-10T01:47:18.261Z,0
2018-01-10T01:48:28.052Z,0
2018-01-10T01:49:38.098Z,0
2018-01-10T01:50:47.899Z,0
2018-01-10T01:51:57.956Z,0
2018-01-10T01:53:08.021Z,0
2018-01-10T01:54:18.102Z,0
2018-01-10T01:55:28.165Z,0
2018-01-10T01:56:37.948Z,0
2018-01-10T01:57:47.732Z,0
2018-01-10T01:58:57.809Z,0
2018-01-10T02:00:07.585Z,0
2018-01-10T02:01:17.456Z,0
2018-01-10T02:02:27.489Z,0
2018-01-10T02:03:37.531Z,0
2018-01-10T02:04:47.318Z,0
2018-01-10T02:05:57.372Z,0
2018-01-10T02:07:07.436Z,0
2018-01-10T02:08:17.489Z,0
2018-01-10T02:09:27.544Z,0
2018-01-10T02:10:37.585Z,0
2018-01-10T02:11:47.621Z,0
2018-01-10T02:12:57.688Z,0
2018-01-10T02:14:07.485Z,0
2018-01-10T02:15:17.533Z,0
2018-01-10T02:16:27.576Z,0
2018-01-10T02:17:37.630Z,0
2018-01-10T02:18:47.676Z,0
2018-01-10T02:19:57.455Z,0
2018-01-10T02:21:07.504Z,0
2018-01-10T02:22:17.554Z,0
2018-01-10T02:23:27.347Z,0
2018-01-10T02:24:37.179Z,0
2018-01-10T02:25:47.231Z,0
2018-01-10T02:26:57.297Z,0
2018-01-10T02:28:07.085Z,0
2018-01-10T02:29:16.909Z,0
2018-01-10T02:30:26.771Z,0
2018-01-10T02:31:36.326Z,0
2018-01-10T02:32:46.389Z,0
2018-01-10T02:33:56.427Z,0
2018-01-10T02:35:06.238Z,0
2018-01-10T02:36:16.337Z,0
2018-01-10T02:37:26.434Z,0
2018-01-10T02:38:36.498Z,0
2018-01-10T02:39:46.539Z,0
2018-01-10T02:40:56.585Z,0
2018-01-10T02:42:06.697Z,0
2018-01-10T02:43:16.498Z,0
2018-01-10T02:44:26.332Z,0
2018-01-10T02:45:36.141Z,0
2018-01-10T02:46:45.930Z,0
2018-01-10T02:47:55.728Z,0
2018-01-10T02:49:05.770Z,0
2018-01-10T02:50:15.815Z,0
2018-01-10T02:51:25.875Z,0
2018-01-10T02:52:35.926Z,0
2018-01-10T02:53:46.029Z,0
2018-01-10T02:54:56.077Z,0
2018-01-10T02:56:06.149Z,0
2018-01-10T02:58:26.321Z,0
2018-01-10T02:59:36.471Z,0
2018-01-10T03:00:46.519Z,0
2018-01-10T03:01:56.316Z,0
2018-01-10T03:34:15.048Z,0
2018-01-10T03:35:25.072Z,0
2018-01-10T03:36:35.122Z,0
2018-01-10T03:37:45.180Z,0
2018-01-10T03:38:55.211Z,0
2018-01-10T03:40:05.266Z,0
2018-01-10T03:41:15.311Z,0
2018-01-10T03:42:25.098Z,0
2018-01-10T03:43:35.177Z,0
2018-01-10T03:44:44.952Z,0
2018-01-10T03:45:55.010Z,0
2018-01-10T03:47:04.791Z,0
2018-01-10T03:48:14.596Z,0
2018-01-10T03:49:24.636Z,0
2018-01-10T03:50:34.697Z,0
2018-01-10T03:51:44.754Z,0
2018-01-10T03:52:54.302Z,0
2018-01-10T03:54:04.346Z,0
2018-01-10T03:55:14.401Z,0
2018-01-10T03:56:24.442Z,0
2018-01-10T03:57:34.639Z,0
2018-01-10T03:58:44.430Z,0
2018-01-10T03:59:54.474Z,0
2018-01-10T04:01:04.528Z,0
2018-01-10T04:02:14.575Z,0
2018-01-10T04:03:24.684Z,0
2018-01-10T04:04:34.736Z,0
2018-01-10T04:05:44.821Z,0
2018-01-10T04:06:54.343Z,0
2018-01-10T04:08:04.393Z,0
2018-01-10T04:09:14.230Z,0
2018-01-10T04:10:24.295Z,0
2018-01-10T04:11:34.414Z,0
2018-01-10T04:12:44.470Z,0
2018-01-10T04:13:54.612Z,0
2018-01-10T04:15:04.705Z,0
2018-01-10T04:16:14.757Z,0
2018-01-10T04:17:24.823Z,0
2018-01-10T04:21:49.439Z,0
2018-01-10T04:22:59.487Z,0
2018-01-10T04:24:09.554Z,0
2018-01-10T04:25:19.085Z,0
2018-01-10T04:26:29.173Z,0
2018-01-10T04:27:39.284Z,0
2018-01-10T04:28:49.084Z,0
2018-01-10T04:29:58.876Z,0
2018-01-10T04:31:08.936Z,0
2018-01-10T04:32:18.464Z,0
2018-01-10T04:33:28.502Z,0
2018-01-10T04:34:38.294Z,0
2018-01-10T04:35:48.347Z,0
2018-01-10T04:36:58.138Z,0
2018-01-10T04:38:08.180Z,0
2018-01-10T04:39:18.223Z,0
2018-01-10T04:40:28.287Z,0
2018-01-10T04:41:38.336Z,0
2018-01-10T04:42:48.391Z,0
2018-01-10T04:43:58.195Z,0
2018-01-10T04:45:08.315Z,0
2018-01-10T04:46:18.096Z,0
2018-01-10T04:47:27.884Z,0
2018-01-10T04:48:37.946Z,0
2018-01-10T04:49:47.467Z,0
2018-01-10T04:50:57.262Z,0
2018-01-10T04:52:07.314Z,0
2018-01-10T04:53:17.356Z,0
2018-01-10T04:54:27.409Z,0
2018-01-10T04:55:37.214Z,0
2018-01-10T04:56:47.059Z,0
2018-01-10T04:57:57.124Z,0
2018-01-10T04:59:07.167Z,0
2018-01-10T05:00:17.217Z,0
2018-01-10T05:01:27.274Z,0
2018-01-10T05:02:36.844Z,0
2018-01-10T05:03:46.900Z,0
2018-01-10T05:04:56.674Z,0
2018-01-10T05:06:06.717Z,0
2018-01-10T05:07:16.517Z,0
2018-01-10T05:08:26.095Z,0
2018-01-10T05:09:35.875Z,0
2018-01-10T05:10:45.922Z,0
2018-01-10T05:11:55.959Z,0
2018-01-10T05:13:05.763Z,0
2018-01-10T05:14:15.803Z,0
2018-01-10T05:15:25.846Z,0
2018-01-10T05:16:35.887Z,0
2018-01-10T05:17:45.414Z,0
2018-01-10T05:18:55.455Z,0
2018-01-10T05:20:05.362Z,0
2018-01-10T05:21:15.160Z,0
2018-01-10T05:22:25.215Z,0
2018-01-10T05:23:35.272Z,0
2018-01-10T05:24:45.071Z,0
2018-01-10T05:25:55.197Z,0
2018-01-10T05:27:05.248Z,0
2018-01-10T05:28:15.055Z,0
2018-01-10T05:29:24.853Z,0
2018-01-10T05:30:34.399Z,0
2018-01-10T05:31:44.945Z,0
2018-01-10T05:32:54.993Z,0
2018-01-10T05:34:05.058Z,0
2018-01-10T05:35:15.106Z,0
2018-01-10T05:36:25.159Z,0
2018-01-10T05:37:34.947Z,0
2018-01-10T05:38:44.734Z,0
2018-01-10T05:39:54.806Z,0
2018-01-10T05:41:04.593Z,0
2018-01-10T05:42:14.674Z,0
2018-01-10T05:43:24.488Z,0
2018-01-10T05:44:34.023Z,0
2018-01-10T05:45:43.811Z,0
2018-01-10T05:46:53.864Z,0
2018-01-10T05:48:03.385Z,0
2018-01-10T05:49:13.432Z,0
2018-01-10T05:50:23.215Z,0
2018-01-10T05:51:33.269Z,0
2018-01-10T05:52:43.320Z,0
2018-01-10T05:53:53.127Z,0
2018-01-10T05:55:03.225Z,0
2018-01-10T05:56:13.036Z,0
2018-01-10T05:57:22.837Z,0
2018-01-10T05:58:32.891Z,0
2018-01-10T05:59:42.696Z,0
2018-01-10T06:00:52.898Z,0
2018-01-10T06:02:02.961Z,0
2018-01-10T06:03:13.007Z,0
2018-01-10T06:04:23.078Z,0
2018-01-10T06:05:32.871Z,0
2018-01-10T06:06:42.916Z,0
2018-01-10T06:07:52.979Z,0
2018-01-10T06:09:03.022Z,0
2018-01-10T06:10:13.084Z,0
2018-01-10T06:11:23.129Z,0
2018-01-10T06:12:33.176Z,0
2018-01-10T06:13:43.264Z,0
2018-01-10T06:14:53.315Z,0
2018-01-10T06:16:03.098Z,0
2018-01-10T06:17:13.156Z,0
2018-01-10T06:18:23.366Z,0
2018-01-10T06:19:33.433Z,0
2018-01-10T06:20:43.480Z,0
2018-01-10T06:21:53.550Z,0
2018-01-10T06:23:03.344Z,0
2018-01-10T06:24:13.464Z,0
2018-01-10T06:25:23.269Z,4
2018-01-10T06:26:33.311Z,4
2018-01-10T06:27:43.361Z,4
2018-01-10T06:28:53.418Z,4
2018-01-10T06:30:03.251Z,0
2018-01-10T06:31:13.310Z,4
2018-01-10T06:32:23.381Z,4
2018-01-10T06:33:33.428Z,4
2018-01-10T06:34:43.480Z,4
2018-01-10T06:35:53.346Z,4
2018-01-10T06:37:03.138Z,4
2018-01-10T06:38:13.245Z,8
2018-01-10T06:39:23.302Z,4
2018-01-10T06:40:33.350Z,8
2018-01-10T06:41:43.663Z,12
2018-01-10T06:42:53.472Z,8
2018-01-10T06:44:03.302Z,8
2018-01-10T06:45:13.376Z,8
2018-01-10T06:46:23.168Z,12
2018-01-10T06:47:33.276Z,12
2018-01-10T06:48:43.112Z,12
2018-01-10T06:49:52.972Z,16
2018-01-10T06:51:03.043Z,20
2018-01-10T06:52:12.844Z,20
2018-01-10T06:53:22.718Z,20
2018-01-10T06:54:32.298Z,24
2018-01-10T06:55:42.371Z,24
2018-01-10T06:56:52.162Z,24
2018-01-10T06:58:02.235Z,28
2018-01-10T06:59:12.491Z,28
2018-01-10T07:00:22.275Z,32
2018-01-10T07:01:32.150Z,32
2018-01-10T07:02:41.969Z,32
2018-01-10T07:03:51.772Z,36
2018-01-10T07:05:01.888Z,40
2018-01-10T07:06:11.672Z,44
2018-01-10T07:07:21.811Z,52
2018-01-10T07:08:32.093Z,60
2018-01-10T07:09:41.901Z,60
2018-01-10T07:10:52.009Z,64
2018-01-10T07:12:02.084Z,60
2018-01-10T07:13:12.163Z,68
2018-01-10T07:14:21.978Z,68
2018-01-10T07:15:32.037Z,72
2018-01-10T07:16:42.169Z,68
2018-01-10T07:17:52.226Z,64
2018-01-10T07:19:02.332Z,68
2018-01-10T07:20:12.411Z,76
2018-01-10T07:21:22.449Z,76
2018-01-10T07:22:32.519Z,76
2018-01-10T07:23:42.589Z,84
2018-01-10T07:24:52.680Z,84
2018-01-10T07:26:02.506Z,88
2018-01-10T07:27:12.321Z,88
2018-01-10T07:28:21.871Z,96
2018-01-10T07:29:31.998Z,92
2018-01-10T07:30:42.809Z,96
2018-01-10T07:31:52.874Z,108
2018-01-10T07:33:03.689Z,112
2018-01-10T07:34:13.800Z,112
2018-01-10T07:35:24.090Z,120
2018-01-10T07:36:34.141Z,132
2018-01-10T07:37:44.201Z,132
2018-01-10T07:38:54.271Z,132
2018-01-10T07:40:04.389Z,140
2018-01-10T07:41:14.450Z,144
2018-01-10T07:42:24.513Z,136
2018-01-10T07:43:34.631Z,128
2018-01-10T07:44:44.694Z,132
2018-01-10T07:45:54.492Z,132
2018-01-10T07:47:04.553Z,136
2018-01-10T07:48:14.669Z,148
2018-01-10T07:49:24.753Z,144
2018-01-10T07:50:34.816Z,144
2018-01-10T07:51:45.115Z,156
2018-01-10T07:52:55.180Z,164
2018-01-10T07:54:05.230Z,160
2018-01-10T07:55:15.309Z,164
2018-01-10T07:56:25.368Z,164
2018-01-10T07:57:35.215Z,164
2018-01-10T07:58:45.274Z,184
2018-01-10T07:59:55.141Z,164
2018-01-10T08:01:05.246Z,164
2018-01-10T08:02:15.350Z,172
2018-01-10T08:03:26.005Z,180
2018-01-10T08:04:36.070Z,196
2018-01-10T08:05:46.132Z,192
2018-01-10T08:06:56.253Z,196
2018-01-10T08:08:06.315Z,208
2018-01-10T08:09:16.381Z,216
2018-01-10T08:10:26.538Z,220
2018-01-10T08:11:36.360Z,224
2018-01-10T08:12:46.459Z,236
2018-01-10T08:13:56.254Z,256
2018-01-10T08:15:06.457Z,248
2018-01-10T08:16:16.522Z,260
2018-01-10T08:17:26.590Z,272
2018-01-10T08:18:36.426Z,272
2018-01-10T08:19:46.225Z,292
2018-01-10T08:20:56.283Z,288
2018-01-10T08:22:06.095Z,292
2018-01-10T08:23:16.213Z,304
2018-01-10T08:24:26.288Z,304
2018-01-10T08:25:36.103Z,308
2018-01-10T08:26:46.174Z,288
2018-01-10T08:27:56.239Z,316
2018-01-10T08:29:06.031Z,320
2018-01-10T08:30:16.114Z,348
2018-01-10T08:31:26.185Z,336
2018-01-10T08:32:36.241Z,332
2018-01-10T08:33:46.342Z,320
2018-01-10T08:34:56.462Z,308
2018-01-10T08:36:06.526Z,328
2018-01-10T08:37:16.603Z,312
2018-01-10T08:38:26.413Z,320
2018-01-10T08:39:37.413Z,308
2018-01-10T08:40:48.728Z,328
2018-01-10T08:41:58.798Z,308
2018-01-10T08:43:08.862Z,328
2018-01-10T08:44:18.906Z,332
2018-01-10T08:45:29.572Z,352
2018-01-10T08:46:39.488Z,352
2018-01-10T08:47:49.595Z,376
2018-01-10T08:48:59.672Z,376
2018-01-10T08:50:09.478Z,384
2018-01-10T08:51:19.530Z,380
2018-01-10T08:52:29.622Z,360
2018-01-10T08:53:39.167Z,388
2018-01-10T08:54:49.239Z,388
2018-01-10T08:55:59.290Z,388
2018-01-10T08:57:09.360Z,352
2018-01-10T08:58:19.434Z,360
2018-01-10T08:59:29.233Z,348
2018-01-10T09:00:38.797Z,368
2018-01-10T09:01:48.857Z,356
2018-01-10T09:02:58.911Z,344
2018-01-10T09:04:09.020Z,320
2018-01-10T09:05:19.102Z,328
2018-01-10T09:06:29.177Z,332
2018-01-10T09:07:39.246Z,356
2018-01-10T09:08:49.320Z,364
2018-01-10T09:10:00.278Z,376
2018-01-10T09:11:10.431Z,380
2018-01-10T09:12:21.346Z,392
2018-01-10T09:13:31.418Z,396
2018-01-10T09:14:41.489Z,388
2018-01-10T09:15:51.293Z,388
2018-01-10T09:17:01.357Z,412
2018-01-10T09:18:11.419Z,400
2018-01-10T09:19:21.508Z,404
2018-01-10T09:20:31.579Z,404
2018-01-10T09:21:41.749Z,420
2018-01-10T09:22:51.625Z,412
2018-01-10T09:24:01.737Z,400
2018-01-10T09:25:11.846Z,376
2018-01-10T09:26:21.965Z,392
2018-01-10T09:27:32.104Z,380
2018-01-10T09:28:42.232Z,392
2018-01-10T09:29:51.904Z,368
2018-01-10T09:31:02.068Z,396
2018-01-10T09:32:12.278Z,400
2018-01-10T09:33:22.626Z,404
2018-01-10T09:34:32.868Z,412
2018-01-10T09:35:43.042Z,404
2018-01-10T09:36:53.213Z,460
2018-01-10T09:38:03.371Z,468
2018-01-10T09:39:13.288Z,444
2018-01-10T09:40:23.376Z,416
2018-01-10T09:41:33.278Z,424
2018-01-10T09:42:43.403Z,464
2018-01-10T09:43:53.259Z,476
2018-01-10T09:45:03.461Z,516
2018-01-10T09:46:13.329Z,484
2018-01-10T09:47:22.899Z,484
2018-01-10T09:48:32.991Z,496
2018-01-10T09:49:43.101Z,532
2018-01-10T09:50:53.358Z,524
2018-01-10T09:52:03.434Z,516
2018-01-10T09:53:14.148Z,512
2018-01-10T09:54:23.953Z,508
2018-01-10T09:55:34.032Z,452
2018-01-10T09:56:43.913Z,444
2018-01-10T09:57:54.028Z,428
2018-01-10T09:59:03.840Z,432
2018-01-10T10:00:14.186Z,404
2018-01-10T10:01:24.281Z,392
2018-01-10T10:02:34.365Z,380
2018-01-10T10:03:44.471Z,416
2018-01-10T10:04:54.568Z,416
2018-01-10T10:06:04.760Z,412
2018-01-10T10:07:14.871Z,424
2018-01-10T10:08:25.104Z,464
2018-01-10T10:09:52.755Z,468
2018-01-10T10:11:02.858Z,504
2018-01-10T10:12:12.671Z,524
2018-01-10T10:13:22.787Z,540
2018-01-10T10:14:32.877Z,580
2018-01-10T10:15:42.786Z,584
2018-01-10T10:16:52.895Z,624
2018-01-10T10:18:02.730Z,608
2018-01-10T10:19:12.812Z,648
2018-01-10T10:20:22.632Z,660
2018-01-10T10:21:32.786Z,624
2018-01-10T10:22:42.884Z,636
2018-01-10T10:23:53.012Z,692
2018-01-10T10:25:03.128Z,692
2018-01-10T10:26:13.228Z,668
2018-01-10T10:27:23.062Z,680
2018-01-10T10:28:32.900Z,680
2018-01-10T10:29:42.797Z,624
2018-01-10T10:30:52.908Z,620
2018-01-10T10:32:09.244Z,560
2018-01-10T10:33:19.074Z,576
2018-01-10T10:34:29.742Z,540
2018-01-10T10:35:39.827Z,584
2018-01-10T10:36:49.982Z,672
2018-01-10T10:38:00.124Z,660
2018-01-10T10:39:10.234Z,732
2018-01-10T10:40:20.075Z,744
2018-01-10T10:41:30.157Z,684
2018-01-10T10:42:40.314Z,632
2018-01-10T10:43:50.446Z,600
2018-01-10T10:45:00.612Z,660
2018-01-10T10:46:10.456Z,704
2018-01-10T10:47:20.280Z,788
2018-01-10T10:48:30.366Z,828
2018-01-10T10:49:40.439Z,792
2018-01-10T10:50:50.541Z,820
2018-01-10T10:52:00.592Z,840
2018-01-10T10:53:10.689Z,796
2018-01-10T10:54:20.246Z,836
2018-01-10T10:55:30.307Z,924
2018-01-10T10:56:40.389Z,956
2018-01-10T10:57:49.962Z,924
2018-01-10T10:59:00.037Z,852
2018-01-10T11:00:09.859Z,824
2018-01-10T11:01:19.726Z,784
2018-01-10T11:02:29.789Z,792
2018-01-10T11:03:39.874Z,716
2018-01-10T11:04:49.421Z,652
2018-01-10T11:05:59.508Z,636
2018-01-10T11:07:09.314Z,588
2018-01-10T11:08:19.108Z,588
2018-01-10T11:09:29.171Z,568
2018-01-10T11:10:38.994Z,604
2018-01-10T11:11:49.079Z,612
2018-01-10T11:12:58.950Z,640
2018-01-10T11:14:09.059Z,696
2018-01-10T11:15:19.123Z,624
2018-01-10T11:16:29.226Z,624
2018-01-10T11:17:39.032Z,632
2018-01-10T11:18:48.900Z,696
2018-01-10T11:19:59.019Z,744
2018-01-10T11:21:08.829Z,704
2018-01-10T11:22:18.932Z,660
2018-01-10T11:23:29.014Z,640
2018-01-10T11:24:39.890Z,632
2018-01-10T11:25:49.967Z,680
2018-01-10T11:26:59.773Z,716
2018-01-10T11:28:09.888Z,744
2018-01-10T11:29:19.991Z,772
2018-01-10T11:30:30.039Z,736
2018-01-10T11:31:39.857Z,760
2018-01-10T11:32:49.946Z,748
2018-01-10T11:34:00.043Z,744
2018-01-10T11:35:10.106Z,820
2018-01-10T11:36:20.282Z,788
2018-01-10T11:37:30.338Z,784
2018-01-10T11:38:40.151Z,756
2018-01-10T11:39:50.232Z,772
2018-01-10T11:41:00.107Z,816
2018-01-10T11:42:10.180Z,772
2018-01-10T11:43:19.965Z,716
2018-01-10T11:44:30.038Z,704
2018-01-10T11:45:39.915Z,652
2018-01-10T11:46:50.034Z,656
2018-01-10T11:48:00.157Z,592
2018-01-10T11:49:10.214Z,556
2018-01-10T11:50:20.291Z,552
2018-01-10T11:51:30.363Z,568
2018-01-10T11:52:40.432Z,576
2018-01-10T11:53:51.168Z,556
2018-01-10T11:55:01.236Z,564
2018-01-10T11:56:11.297Z,596
2018-01-10T11:57:21.614Z,600
2018-01-10T11:58:31.683Z,560
2018-01-10T11:59:41.765Z,584
2018-01-10T12:00:51.832Z,592
2018-01-10T12:02:02.109Z,604
2018-01-10T12:03:12.223Z,648
2018-01-10T12:04:22.039Z,652
2018-01-10T12:05:32.101Z,700
2018-01-10T12:06:42.179Z,740
2018-01-10T12:07:52.390Z,712
2018-01-10T12:09:02.469Z,688
2018-01-10T12:10:12.541Z,720
2018-01-10T12:11:22.629Z,720
2018-01-10T12:12:32.731Z,660
2018-01-10T12:13:42.570Z,620
2018-01-10T12:14:52.630Z,584
2018-01-10T12:16:02.686Z,544
2018-01-10T12:17:12.779Z,524
2018-01-10T12:18:22.857Z,532
2018-01-10T12:19:33.038Z,576
2018-01-10T12:20:42.897Z,596
2018-01-10T12:21:53.942Z,656
2018-01-10T12:23:04.020Z,696
2018-01-10T12:24:13.824Z,688
2018-01-10T12:25:24.136Z,696
2018-01-10T12:26:33.968Z,776
2018-01-10T12:27:43.763Z,856
2018-01-10T12:28:53.824Z,920
2018-01-10T12:30:03.962Z,936
2018-01-10T12:31:14.042Z,944
2018-01-10T12:32:24.170Z,1024
2018-01-10T12:33:33.976Z,1040
2018-01-10T12:34:43.507Z,1016
2018-01-10T12:35:53.683Z,1028
2018-01-10T12:37:03.759Z,1156
2018-01-10T12:38:13.811Z,1328
2018-01-10T12:39:23.892Z,1400
2018-01-10T12:40:33.980Z,1372
2018-01-10T12:41:44.051Z,1292
2018-01-10T12:42:54.122Z,1160
2018-01-10T12:44:04.203Z,1100
2018-01-10T12:45:14.270Z,1116
2018-01-10T12:46:24.327Z,988
2018-01-10T12:47:34.465Z,908
2018-01-10T12:48:44.546Z,896
2018-01-10T12:49:54.624Z,840
2018-01-10T12:51:05.157Z,892
2018-01-10T12:52:14.956Z,944
2018-01-10T12:53:24.739Z,960
2018-01-10T12:54:34.943Z,964
2018-01-10T12:55:44.747Z,992
2018-01-10T12:56:54.825Z,1048
2018-01-10T12:58:04.641Z,1112
2018-01-10T12:59:14.449Z,1160
2018-01-10T13:00:23.989Z,1112
2018-01-10T13:01:34.171Z,1064
2018-01-10T13:02:43.976Z,1036
2018-01-10T13:03:53.840Z,1000
2018-01-10T13:05:03.905Z,960
2018-01-10T13:06:14.085Z,980
2018-01-10T13:07:24.216Z,1040
2018-01-10T13:08:34.373Z,1148
2018-01-10T13:09:44.490Z,1240
2018-01-10T13:10:55.380Z,1296
2018-01-10T13:12:05.230Z,1296
2018-01-10T13:13:15.134Z,1240
2018-01-10T13:14:25.222Z,1092
2018-01-10T13:15:35.065Z,1100
2018-01-10T13:16:45.422Z,1112
2018-01-10T13:17:55.287Z,1100
2018-01-10T13:19:05.172Z,1168
2018-01-10T13:20:14.973Z,1260
2018-01-10T13:21:25.087Z,1248
2018-01-10T13:22:35.159Z,1124
2018-01-10T13:23:44.980Z,1072
2018-01-10T13:24:54.796Z,1088
2018-01-10T13:26:04.902Z,1064
2018-01-10T13:27:14.703Z,1056
2018-01-10T13:28:24.511Z,1148
2018-01-10T13:29:34.582Z,1128
2018-01-10T13:30:44.708Z,1200
2018-01-10T13:31:54.801Z,1180
2018-01-10T13:33:04.896Z,1156
2018-01-10T13:34:14.716Z,1120
2018-01-10T13:35:24.800Z,1088
2018-01-10T13:36:34.614Z,1060
2018-01-10T13:37:44.404Z,1096
2018-01-10T13:38:54.485Z,1012
2018-01-10T13:40:04.565Z,1056
2018-01-10T13:41:14.675Z,1144
2018-01-10T13:42:24.490Z,1124
2018-01-10T13:43:34.577Z,996
2018-01-10T13:44:45.051Z,968
2018-01-10T13:45:55.120Z,924
2018-01-10T13:47:05.268Z,812
2018-01-10T13:48:15.299Z,716
2018-01-10T13:49:24.872Z,708
2018-01-10T13:50:34.950Z,692
2018-01-10T13:51:45.030Z,656
2018-01-10T13:52:55.158Z,652
2018-01-10T13:54:05.232Z,620
2018-01-10T13:55:15.333Z,568
2018-01-10T13:56:25.681Z,572
2018-01-10T13:57:35.774Z,576
2018-01-10T13:58:45.631Z,548
2018-01-10T13:59:55.781Z,568
2018-01-10T14:01:05.904Z,544
2018-01-10T14:02:15.969Z,508
2018-01-10T14:03:25.784Z,476
2018-01-10T14:04:35.631Z,416
2018-01-10T14:05:45.676Z,392
2018-01-10T14:06:55.731Z,360
2018-01-10T14:08:05.509Z,348
2018-01-10T14:09:15.298Z,332
2018-01-10T14:10:25.355Z,308
2018-01-10T14:11:35.425Z,292
2018-01-10T14:12:45.522Z,296
2018-01-10T14:13:55.340Z,304
2018-01-10T14:15:05.391Z,296
2018-01-10T14:16:15.246Z,288
2018-01-10T14:17:25.026Z,268
2018-01-10T14:18:35.075Z,268
2018-01-10T14:19:44.628Z,272
2018-01-10T14:20:54.717Z,268
2018-01-10T14:22:04.261Z,272
2018-01-10T14:23:14.321Z,276
2018-01-10T14:24:24.382Z,276
2018-01-10T14:25:34.431Z,264
2018-01-10T14:26:44.524Z,252
2018-01-10T14:27:54.582Z,240
2018-01-10T14:29:04.658Z,228
2018-01-10T14:30:14.752Z,220
2018-01-10T14:31:24.606Z,216
2018-01-10T14:32:34.700Z,216
2018-01-10T14:33:44.814Z,212
2018-01-10T14:34:54.906Z,208
2018-01-10T14:36:04.959Z,204
2018-01-10T14:37:15.041Z,204
2018-01-10T14:38:25.152Z,200
2018-01-10T14:39:35.223Z,192
2018-01-10T14:40:45.263Z,180
2018-01-10T14:41:54.806Z,176
2018-01-10T14:43:04.932Z,172
2018-01-10T14:44:14.992Z,164
2018-01-10T14:45:24.540Z,164
2018-01-10T14:46:34.589Z,160
2018-01-10T14:47:44.375Z,160
2018-01-10T14:48:53.950Z,156
2018-01-10T14:50:03.730Z,152
2018-01-10T14:51:13.519Z,144
2018-01-10T14:52:23.582Z,132
2018-01-10T14:53:33.649Z,120
2018-01-10T14:54:43.765Z,112
2018-01-10T14:55:53.558Z,100
2018-01-10T14:57:03.611Z,92
2018-01-10T14:58:13.410Z,92
2018-01-10T14:59:23.473Z,84
2018-01-10T15:00:33.594Z,80
2018-01-10T15:01:43.667Z,76
2018-01-10T15:02:54.235Z,68
2018-01-10T15:04:04.031Z,60
2018-01-10T15:05:13.824Z,56
2018-01-10T15:06:23.884Z,48
2018-01-10T15:07:33.417Z,44
2018-01-10T15:08:43.481Z,44
2018-01-10T15:09:53.265Z,40
2018-01-10T15:11:03.339Z,36
2018-01-10T15:12:13.679Z,36
2018-01-10T15:13:23.730Z,32
2018-01-10T15:14:33.813Z,24
2018-01-10T15:15:43.861Z,20
2018-01-10T15:16:53.920Z,20
2018-01-10T15:18:04.027Z,16
2018-01-10T15:19:13.885Z,12
2018-01-10T15:20:23.968Z,12
2018-01-10T15:21:34.016Z,12
2018-01-10T15:22:43.794Z,12
2018-01-10T15:23:53.853Z,8
2018-01-10T15:25:03.958Z,4
2018-01-10T15:26:14.015Z,8
2018-01-10T15:27:23.546Z,4
2018-01-10T15:28:33.601Z,4
2018-01-10T15:29:43.505Z,8
2018-01-10T15:30:53.556Z,4
2018-01-10T15:32:03.362Z,4
2018-01-10T15:33:14.476Z,4
2018-01-10T15:34:24.536Z,4
2018-01-10T15:35:34.592Z,4
2018-01-10T15:36:44.439Z,0
2018-01-10T15:37:54.477Z,4
2018-01-10T15:39:04.549Z,4
2018-01-10T15:40:14.608Z,4
2018-01-10T15:41:24.442Z,0
2018-01-10T15:42:34.499Z,0
2018-01-10T15:43:44.625Z,0
2018-01-10T15:44:54.405Z,0
2018-01-10T15:46:04.482Z,0
2018-01-10T15:47:14.324Z,0
2018-01-10T15:48:24.135Z,0
2018-01-10T15:49:34.185Z,0
2018-01-10T15:50:44.019Z,0
2018-01-10T15:51:53.836Z,0
2018-01-10T15:53:03.944Z,0
2018-01-10T15:54:13.731Z,0
2018-01-10T15:55:23.807Z,0
2018-01-10T15:56:33.880Z,0
2018-01-10T15:57:44.961Z,0
2018-01-10T15:58:55.093Z,0
2018-01-10T16:00:04.930Z,0
2018-01-10T16:01:14.994Z,0
2018-01-10T16:02:25.060Z,0
2018-01-10T16:03:35.126Z,0
2018-01-10T16:04:45.233Z,0
2018-01-10T16:05:55.289Z,0
2018-01-10T16:07:06.001Z,0
2018-01-10T16:08:15.820Z,0
2018-01-10T16:09:25.627Z,0
2018-01-10T16:10:35.502Z,0
2018-01-10T16:11:45.290Z,0
2018-01-10T16:12:55.353Z,0
2018-01-10T16:14:05.422Z,0
2018-01-10T16:15:15.477Z,0
2018-01-10T16:16:25.650Z,0
2018-01-10T16:17:35.719Z,0
2018-01-10T16:18:45.612Z,0
2018-01-10T16:19:55.686Z,0
2018-01-10T16:21:05.739Z,0
2018-01-10T16:22:15.858Z,0
2018-01-10T16:23:25.973Z,0
2018-01-10T16:24:36.099Z,0
2018-01-10T16:25:46.162Z,0
2018-01-10T16:26:55.983Z,0
2018-01-10T16:28:05.835Z,0
2018-01-10T16:29:15.912Z,0
2018-01-10T16:30:25.965Z,0
2018-01-10T16:31:36.036Z,0
2018-01-10T16:32:46.427Z,0
2018-01-10T16:33:56.279Z,0
2018-01-10T16:35:06.373Z,0
2018-01-10T16:36:16.453Z,0
2018-01-10T16:37:26.589Z,0
2018-01-10T16:38:36.439Z,0
2018-01-10T16:39:46.574Z,0
2018-01-10T16:40:56.637Z,0
2018-01-10T16:42:06.445Z,0
2018-01-10T16:43:16.258Z,0
2018-01-10T16:44:25.799Z,0
2018-01-10T16:45:35.919Z,0
2018-01-10T16:46:45.730Z,0
2018-01-10T16:47:55.825Z,0
2018-01-10T16:49:05.916Z,0
2018-01-10T16:50:15.985Z,0
2018-01-10T16:51:26.146Z,0
2018-01-10T16:52:36.330Z,0
2018-01-10T16:53:46.425Z,0
2018-01-10T16:54:56.503Z,0
2018-01-10T16:56:06.576Z,0
2018-01-10T16:57:17.748Z,0
2018-01-10T16:58:27.806Z,0
2018-01-10T16:59:38.579Z,0
2018-01-10T17:00:48.412Z,0
2018-01-10T17:01:58.542Z,0
2018-01-10T17:03:08.362Z,0
2018-01-10T17:04:18.442Z,0
2018-01-10T17:05:29.227Z,0
2018-01-10T17:06:39.295Z,0
2018-01-10T17:07:49.388Z,0
2018-01-10T17:08:59.517Z,0
2018-01-10T17:10:09.607Z,0
2018-01-10T17:11:19.446Z,0
2018-01-10T17:12:29.263Z,0
2018-01-10T17:13:39.334Z,0